<?xml version="1.0" encoding="UTF-8" standalone="no" ?>
<gpx xmlns="http://www.topografix.com/GPX/1/1" xmlns:xsi="http://www.w3.org/2001/XMLSchema-instance" xsi:schemaLocation="http://www.topografix.com/GPX/1/1 http://www.topografix.com/GPX/1/1/gpx.xsd" version="1.1" creator="VisuGPX - https://www.visugpx.com">
  <metadata>
    <name>Pleoux La Sarrasine</name>
    <desc><![CDATA[Petit circuit sans grande difficulté autour de la voie douce.
]]></desc>
  </metadata>
  <trk>
    <name><![CDATA[2014-03-14-Pleoux La Sarrasine]]></name>
    <trkseg>
      <trkpt lat="44.35237" lon="4.22346">
        <ele>145</ele>
        <time>2014-03-14T13:18:46Z</time>
      </trkpt>
      <trkpt lat="44.3522" lon="4.22336">
        <ele>151</ele>
        <time>2014-03-14T13:21:49Z</time>
      </trkpt>
      <trkpt lat="44.3521" lon="4.22316">
        <ele>153</ele>
        <time>2014-03-14T13:22:07Z</time>
      </trkpt>
      <trkpt lat="44.35199" lon="4.22297">
        <ele>153</ele>
        <time>2014-03-14T13:22:25Z</time>
      </trkpt>
      <trkpt lat="44.35189" lon="4.22277">
        <ele>152</ele>
        <time>2014-03-14T13:22:41Z</time>
      </trkpt>
      <trkpt lat="44.35181" lon="4.22256">
        <ele>150</ele>
        <time>2014-03-14T13:22:58Z</time>
      </trkpt>
      <trkpt lat="44.35176" lon="4.22233">
        <ele>149</ele>
        <time>2014-03-14T13:23:15Z</time>
      </trkpt>
      <trkpt lat="44.35171" lon="4.2221">
        <ele>149</ele>
        <time>2014-03-14T13:23:30Z</time>
      </trkpt>
      <trkpt lat="44.35166" lon="4.22186">
        <ele>148</ele>
        <time>2014-03-14T13:23:46Z</time>
      </trkpt>
      <trkpt lat="44.35162" lon="4.22163">
        <ele>148</ele>
        <time>2014-03-14T13:24:03Z</time>
      </trkpt>
      <trkpt lat="44.35157" lon="4.2214">
        <ele>147</ele>
        <time>2014-03-14T13:24:20Z</time>
      </trkpt>
      <trkpt lat="44.35152" lon="4.22116">
        <ele>147</ele>
        <time>2014-03-14T13:24:37Z</time>
      </trkpt>
      <trkpt lat="44.35146" lon="4.22093">
        <ele>146</ele>
        <time>2014-03-14T13:24:53Z</time>
      </trkpt>
      <trkpt lat="44.35141" lon="4.2207">
        <ele>145</ele>
        <time>2014-03-14T13:25:09Z</time>
      </trkpt>
      <trkpt lat="44.35138" lon="4.22045">
        <ele>144</ele>
        <time>2014-03-14T13:25:25Z</time>
      </trkpt>
      <trkpt lat="44.35137" lon="4.22021">
        <ele>144</ele>
        <time>2014-03-14T13:25:42Z</time>
      </trkpt>
      <trkpt lat="44.35137" lon="4.21996">
        <ele>142</ele>
        <time>2014-03-14T13:25:58Z</time>
      </trkpt>
      <trkpt lat="44.35137" lon="4.21972">
        <ele>141</ele>
        <time>2014-03-14T13:26:16Z</time>
      </trkpt>
      <trkpt lat="44.35138" lon="4.21948">
        <ele>141</ele>
        <time>2014-03-14T13:26:31Z</time>
      </trkpt>
      <trkpt lat="44.35139" lon="4.21925">
        <ele>141</ele>
        <time>2014-03-14T13:26:46Z</time>
      </trkpt>
      <trkpt lat="44.35139" lon="4.21901">
        <ele>140</ele>
        <time>2014-03-14T13:27:01Z</time>
      </trkpt>
      <trkpt lat="44.35143" lon="4.21877">
        <ele>141</ele>
        <time>2014-03-14T13:27:19Z</time>
      </trkpt>
      <trkpt lat="44.35146" lon="4.21854">
        <ele>136</ele>
        <time>2014-03-14T13:27:36Z</time>
      </trkpt>
      <trkpt lat="44.35136" lon="4.21833">
        <ele>135</ele>
        <time>2014-03-14T13:28:01Z</time>
      </trkpt>
      <trkpt lat="44.35118" lon="4.2183">
        <ele>133</ele>
        <time>2014-03-14T13:28:23Z</time>
      </trkpt>
      <trkpt lat="44.351" lon="4.21833">
        <ele>131</ele>
        <time>2014-03-14T13:28:42Z</time>
      </trkpt>
      <trkpt lat="44.35083" lon="4.21837">
        <ele>133</ele>
        <time>2014-03-14T13:28:58Z</time>
      </trkpt>
      <trkpt lat="44.35065" lon="4.21843">
        <ele>133</ele>
        <time>2014-03-14T13:29:14Z</time>
      </trkpt>
      <trkpt lat="44.3505" lon="4.21854">
        <ele>136</ele>
        <time>2014-03-14T13:29:29Z</time>
      </trkpt>
      <trkpt lat="44.35033" lon="4.21856">
        <ele>138</ele>
        <time>2014-03-14T13:29:45Z</time>
      </trkpt>
      <trkpt lat="44.35016" lon="4.2185">
        <ele>138</ele>
        <time>2014-03-14T13:30:04Z</time>
      </trkpt>
      <trkpt lat="44.34998" lon="4.21846">
        <ele>137</ele>
        <time>2014-03-14T13:30:27Z</time>
      </trkpt>
      <trkpt lat="44.34982" lon="4.21835">
        <ele>150</ele>
        <time>2014-03-14T13:32:44Z</time>
      </trkpt>
      <trkpt lat="44.34998" lon="4.21846">
        <ele>135</ele>
        <time>2014-03-14T13:35:17Z</time>
      </trkpt>
      <trkpt lat="44.35016" lon="4.2185">
        <ele>135</ele>
        <time>2014-03-14T13:35:35Z</time>
      </trkpt>
      <trkpt lat="44.35033" lon="4.21858">
        <ele>136</ele>
        <time>2014-03-14T13:35:54Z</time>
      </trkpt>
      <trkpt lat="44.3505" lon="4.21853">
        <ele>137</ele>
        <time>2014-03-14T13:36:11Z</time>
      </trkpt>
      <trkpt lat="44.35066" lon="4.21844">
        <ele>138</ele>
        <time>2014-03-14T13:36:29Z</time>
      </trkpt>
      <trkpt lat="44.35083" lon="4.21839">
        <ele>137</ele>
        <time>2014-03-14T13:36:51Z</time>
      </trkpt>
      <trkpt lat="44.35101" lon="4.21838">
        <ele>140</ele>
        <time>2014-03-14T13:37:06Z</time>
      </trkpt>
      <trkpt lat="44.35117" lon="4.2183">
        <ele>138</ele>
        <time>2014-03-14T13:37:27Z</time>
      </trkpt>
      <trkpt lat="44.35134" lon="4.21833">
        <ele>139</ele>
        <time>2014-03-14T13:37:43Z</time>
      </trkpt>
      <trkpt lat="44.35152" lon="4.2183">
        <ele>140</ele>
        <time>2014-03-14T13:38:01Z</time>
      </trkpt>
      <trkpt lat="44.35157" lon="4.21807">
        <ele>136</ele>
        <time>2014-03-14T13:38:19Z</time>
      </trkpt>
      <trkpt lat="44.35161" lon="4.21783">
        <ele>136</ele>
        <time>2014-03-14T13:38:36Z</time>
      </trkpt>
      <trkpt lat="44.35163" lon="4.21758">
        <ele>137</ele>
        <time>2014-03-14T13:38:56Z</time>
      </trkpt>
      <trkpt lat="44.35167" lon="4.21734">
        <ele>141</ele>
        <time>2014-03-14T13:39:17Z</time>
      </trkpt>
      <trkpt lat="44.35164" lon="4.2171">
        <ele>140</ele>
        <time>2014-03-14T13:39:32Z</time>
      </trkpt>
      <trkpt lat="44.35162" lon="4.21685">
        <ele>140</ele>
        <time>2014-03-14T13:39:49Z</time>
      </trkpt>
      <trkpt lat="44.35162" lon="4.2166">
        <ele>142</ele>
        <time>2014-03-14T13:40:09Z</time>
      </trkpt>
      <trkpt lat="44.35158" lon="4.21637">
        <ele>141</ele>
        <time>2014-03-14T13:40:27Z</time>
      </trkpt>
      <trkpt lat="44.35155" lon="4.21613">
        <ele>141</ele>
        <time>2014-03-14T13:40:45Z</time>
      </trkpt>
      <trkpt lat="44.35152" lon="4.21589">
        <ele>142</ele>
        <time>2014-03-14T13:41:01Z</time>
      </trkpt>
      <trkpt lat="44.35152" lon="4.21564">
        <ele>144</ele>
        <time>2014-03-14T13:41:19Z</time>
      </trkpt>
      <trkpt lat="44.35157" lon="4.2154">
        <ele>142</ele>
        <time>2014-03-14T13:41:44Z</time>
      </trkpt>
      <trkpt lat="44.35165" lon="4.21518">
        <ele>143</ele>
        <time>2014-03-14T13:42:09Z</time>
      </trkpt>
      <trkpt lat="44.35173" lon="4.21497">
        <ele>144</ele>
        <time>2014-03-14T13:42:25Z</time>
      </trkpt>
      <trkpt lat="44.35177" lon="4.21473">
        <ele>142</ele>
        <time>2014-03-14T13:42:41Z</time>
      </trkpt>
      <trkpt lat="44.35177" lon="4.21449">
        <ele>141</ele>
        <time>2014-03-14T13:42:57Z</time>
      </trkpt>
      <trkpt lat="44.35178" lon="4.21424">
        <ele>141</ele>
        <time>2014-03-14T13:43:14Z</time>
      </trkpt>
      <trkpt lat="44.35178" lon="4.214">
        <ele>142</ele>
        <time>2014-03-14T13:43:31Z</time>
      </trkpt>
      <trkpt lat="44.35177" lon="4.21375">
        <ele>143</ele>
        <time>2014-03-14T13:43:48Z</time>
      </trkpt>
      <trkpt lat="44.35179" lon="4.21352">
        <ele>146</ele>
        <time>2014-03-14T13:44:04Z</time>
      </trkpt>
      <trkpt lat="44.35178" lon="4.21327">
        <ele>147</ele>
        <time>2014-03-14T13:44:21Z</time>
      </trkpt>
      <trkpt lat="44.35177" lon="4.21303">
        <ele>148</ele>
        <time>2014-03-14T13:44:40Z</time>
      </trkpt>
      <trkpt lat="44.35172" lon="4.21279">
        <ele>149</ele>
        <time>2014-03-14T13:45:00Z</time>
      </trkpt>
      <trkpt lat="44.35155" lon="4.21272">
        <ele>150</ele>
        <time>2014-03-14T13:45:23Z</time>
      </trkpt>
      <trkpt lat="44.35137" lon="4.21274">
        <ele>145</ele>
        <time>2014-03-14T13:45:46Z</time>
      </trkpt>
      <trkpt lat="44.3512" lon="4.21276">
        <ele>139</ele>
        <time>2014-03-14T13:46:30Z</time>
      </trkpt>
      <trkpt lat="44.35102" lon="4.21272">
        <ele>145</ele>
        <time>2014-03-14T13:46:58Z</time>
      </trkpt>
      <trkpt lat="44.35086" lon="4.21266">
        <ele>146</ele>
        <time>2014-03-14T13:47:26Z</time>
      </trkpt>
      <trkpt lat="44.35071" lon="4.21253">
        <ele>151</ele>
        <time>2014-03-14T13:48:18Z</time>
      </trkpt>
      <trkpt lat="44.35057" lon="4.21237">
        <ele>152</ele>
        <time>2014-03-14T13:48:40Z</time>
      </trkpt>
      <trkpt lat="44.35043" lon="4.21223">
        <ele>150</ele>
        <time>2014-03-14T13:49:00Z</time>
      </trkpt>
      <trkpt lat="44.35028" lon="4.21209">
        <ele>150</ele>
        <time>2014-03-14T13:49:18Z</time>
      </trkpt>
      <trkpt lat="44.35013" lon="4.21198">
        <ele>152</ele>
        <time>2014-03-14T13:49:37Z</time>
      </trkpt>
      <trkpt lat="44.34997" lon="4.21185">
        <ele>154</ele>
        <time>2014-03-14T13:49:59Z</time>
      </trkpt>
      <trkpt lat="44.34983" lon="4.21171">
        <ele>156</ele>
        <time>2014-03-14T13:50:20Z</time>
      </trkpt>
      <trkpt lat="44.34967" lon="4.2116">
        <ele>154</ele>
        <time>2014-03-14T13:50:43Z</time>
      </trkpt>
      <trkpt lat="44.34956" lon="4.21141">
        <ele>150</ele>
        <time>2014-03-14T13:51:03Z</time>
      </trkpt>
      <trkpt lat="44.34943" lon="4.21126">
        <ele>153</ele>
        <time>2014-03-14T13:51:22Z</time>
      </trkpt>
      <trkpt lat="44.34929" lon="4.21112">
        <ele>155</ele>
        <time>2014-03-14T13:51:40Z</time>
      </trkpt>
      <trkpt lat="44.34915" lon="4.21097">
        <ele>158</ele>
        <time>2014-03-14T13:51:58Z</time>
      </trkpt>
      <trkpt lat="44.34901" lon="4.21084">
        <ele>158</ele>
        <time>2014-03-14T13:52:17Z</time>
      </trkpt>
      <trkpt lat="44.34885" lon="4.21073">
        <ele>163</ele>
        <time>2014-03-14T13:52:38Z</time>
      </trkpt>
      <trkpt lat="44.34884" lon="4.21048">
        <ele>154</ele>
        <time>2014-03-14T13:53:02Z</time>
      </trkpt>
      <trkpt lat="44.34884" lon="4.21024">
        <ele>156</ele>
        <time>2014-03-14T13:55:50Z</time>
      </trkpt>
      <trkpt lat="44.34886" lon="4.21">
        <ele>151</ele>
        <time>2014-03-14T13:56:18Z</time>
      </trkpt>
      <trkpt lat="44.3489" lon="4.20975">
        <ele>156</ele>
        <time>2014-03-14T13:56:38Z</time>
      </trkpt>
      <trkpt lat="44.34898" lon="4.20953">
        <ele>162</ele>
        <time>2014-03-14T13:57:11Z</time>
      </trkpt>
      <trkpt lat="44.34913" lon="4.20939">
        <ele>165</ele>
        <time>2014-03-14T13:57:49Z</time>
      </trkpt>
      <trkpt lat="44.34927" lon="4.20924">
        <ele>163</ele>
        <time>2014-03-14T13:58:24Z</time>
      </trkpt>
      <trkpt lat="44.34938" lon="4.20905">
        <ele>162</ele>
        <time>2014-03-14T13:58:48Z</time>
      </trkpt>
      <trkpt lat="44.3495" lon="4.20888">
        <ele>165</ele>
        <time>2014-03-14T13:59:11Z</time>
      </trkpt>
      <trkpt lat="44.34961" lon="4.20868">
        <ele>165</ele>
        <time>2014-03-14T13:59:41Z</time>
      </trkpt>
      <trkpt lat="44.34969" lon="4.20846">
        <ele>161</ele>
        <time>2014-03-14T14:00:05Z</time>
      </trkpt>
      <trkpt lat="44.34978" lon="4.20825">
        <ele>161</ele>
        <time>2014-03-14T14:00:29Z</time>
      </trkpt>
      <trkpt lat="44.34995" lon="4.20818">
        <ele>172</ele>
        <time>2014-03-14T14:02:25Z</time>
      </trkpt>
      <trkpt lat="44.3501" lon="4.20804">
        <ele>169</ele>
        <time>2014-03-14T14:02:51Z</time>
      </trkpt>
      <trkpt lat="44.35019" lon="4.20784">
        <ele>167</ele>
        <time>2014-03-14T14:03:11Z</time>
      </trkpt>
      <trkpt lat="44.35028" lon="4.20763">
        <ele>164</ele>
        <time>2014-03-14T14:03:32Z</time>
      </trkpt>
      <trkpt lat="44.35037" lon="4.20742">
        <ele>163</ele>
        <time>2014-03-14T14:03:51Z</time>
      </trkpt>
      <trkpt lat="44.35049" lon="4.20724">
        <ele>163</ele>
        <time>2014-03-14T14:04:10Z</time>
      </trkpt>
      <trkpt lat="44.3506" lon="4.20706">
        <ele>161</ele>
        <time>2014-03-14T14:04:30Z</time>
      </trkpt>
      <trkpt lat="44.35068" lon="4.20684">
        <ele>162</ele>
        <time>2014-03-14T14:04:50Z</time>
      </trkpt>
      <trkpt lat="44.35078" lon="4.20663">
        <ele>159</ele>
        <time>2014-03-14T14:05:12Z</time>
      </trkpt>
      <trkpt lat="44.35087" lon="4.20642">
        <ele>160</ele>
        <time>2014-03-14T14:05:34Z</time>
      </trkpt>
      <trkpt lat="44.35096" lon="4.20622">
        <ele>162</ele>
        <time>2014-03-14T14:05:55Z</time>
      </trkpt>
      <trkpt lat="44.35106" lon="4.20601">
        <ele>165</ele>
        <time>2014-03-14T14:06:16Z</time>
      </trkpt>
      <trkpt lat="44.35113" lon="4.20579">
        <ele>166</ele>
        <time>2014-03-14T14:06:35Z</time>
      </trkpt>
      <trkpt lat="44.35123" lon="4.20559">
        <ele>167</ele>
        <time>2014-03-14T14:06:53Z</time>
      </trkpt>
      <trkpt lat="44.35135" lon="4.20541">
        <ele>166</ele>
        <time>2014-03-14T14:07:16Z</time>
      </trkpt>
      <trkpt lat="44.35146" lon="4.20522">
        <ele>167</ele>
        <time>2014-03-14T14:07:34Z</time>
      </trkpt>
      <trkpt lat="44.35155" lon="4.20502">
        <ele>169</ele>
        <time>2014-03-14T14:07:52Z</time>
      </trkpt>
      <trkpt lat="44.35166" lon="4.20483">
        <ele>171</ele>
        <time>2014-03-14T14:08:16Z</time>
      </trkpt>
      <trkpt lat="44.35177" lon="4.20463">
        <ele>168</ele>
        <time>2014-03-14T14:09:14Z</time>
      </trkpt>
      <trkpt lat="44.35188" lon="4.20443">
        <ele>169</ele>
        <time>2014-03-14T14:09:34Z</time>
      </trkpt>
      <trkpt lat="44.35199" lon="4.20425">
        <ele>167</ele>
        <time>2014-03-14T14:09:53Z</time>
      </trkpt>
      <trkpt lat="44.35215" lon="4.20416">
        <ele>168</ele>
        <time>2014-03-14T14:10:12Z</time>
      </trkpt>
      <trkpt lat="44.35232" lon="4.2041">
        <ele>168</ele>
        <time>2014-03-14T14:10:31Z</time>
      </trkpt>
      <trkpt lat="44.3524" lon="4.20388">
        <ele>167</ele>
        <time>2014-03-14T14:10:50Z</time>
      </trkpt>
      <trkpt lat="44.35245" lon="4.20364">
        <ele>166</ele>
        <time>2014-03-14T14:11:10Z</time>
      </trkpt>
      <trkpt lat="44.35249" lon="4.2034">
        <ele>166</ele>
        <time>2014-03-14T14:11:28Z</time>
      </trkpt>
      <trkpt lat="44.35252" lon="4.20316">
        <ele>165</ele>
        <time>2014-03-14T14:11:47Z</time>
      </trkpt>
      <trkpt lat="44.35253" lon="4.20292">
        <ele>165</ele>
        <time>2014-03-14T14:12:09Z</time>
      </trkpt>
      <trkpt lat="44.35254" lon="4.20267">
        <ele>169</ele>
        <time>2014-03-14T14:12:25Z</time>
      </trkpt>
      <trkpt lat="44.35258" lon="4.20243">
        <ele>169</ele>
        <time>2014-03-14T14:12:42Z</time>
      </trkpt>
      <trkpt lat="44.35266" lon="4.20222">
        <ele>170</ele>
        <time>2014-03-14T14:13:02Z</time>
      </trkpt>
      <trkpt lat="44.35273" lon="4.20199">
        <ele>174</ele>
        <time>2014-03-14T14:13:20Z</time>
      </trkpt>
      <trkpt lat="44.3528" lon="4.20177">
        <ele>173</ele>
        <time>2014-03-14T14:13:38Z</time>
      </trkpt>
      <trkpt lat="44.35289" lon="4.20155">
        <ele>176</ele>
        <time>2014-03-14T14:13:54Z</time>
      </trkpt>
      <trkpt lat="44.35301" lon="4.20137">
        <ele>178</ele>
        <time>2014-03-14T14:14:11Z</time>
      </trkpt>
      <trkpt lat="44.35314" lon="4.20121">
        <ele>177</ele>
        <time>2014-03-14T14:14:29Z</time>
      </trkpt>
      <trkpt lat="44.35329" lon="4.20108">
        <ele>172</ele>
        <time>2014-03-14T14:14:48Z</time>
      </trkpt>
      <trkpt lat="44.3534" lon="4.20089">
        <ele>178</ele>
        <time>2014-03-14T14:15:07Z</time>
      </trkpt>
      <trkpt lat="44.35354" lon="4.20074">
        <ele>178</ele>
        <time>2014-03-14T14:15:30Z</time>
      </trkpt>
      <trkpt lat="44.35372" lon="4.20073">
        <ele>172</ele>
        <time>2014-03-14T14:16:01Z</time>
      </trkpt>
      <trkpt lat="44.35377" lon="4.20096">
        <ele>172</ele>
        <time>2014-03-14T14:19:53Z</time>
      </trkpt>
      <trkpt lat="44.35377" lon="4.20121">
        <ele>165</ele>
        <time>2014-03-14T14:20:43Z</time>
      </trkpt>
      <trkpt lat="44.35375" lon="4.20146">
        <ele>162</ele>
        <time>2014-03-14T14:21:14Z</time>
      </trkpt>
      <trkpt lat="44.35386" lon="4.20165">
        <ele>159</ele>
        <time>2014-03-14T14:21:43Z</time>
      </trkpt>
      <trkpt lat="44.35403" lon="4.20171">
        <ele>160</ele>
        <time>2014-03-14T14:22:04Z</time>
      </trkpt>
      <trkpt lat="44.35421" lon="4.20175">
        <ele>159</ele>
        <time>2014-03-14T14:22:23Z</time>
      </trkpt>
      <trkpt lat="44.35438" lon="4.2018">
        <ele>159</ele>
        <time>2014-03-14T14:22:41Z</time>
      </trkpt>
      <trkpt lat="44.3545" lon="4.20199">
        <ele>161</ele>
        <time>2014-03-14T14:23:06Z</time>
      </trkpt>
      <trkpt lat="44.35449" lon="4.20224">
        <ele>160</ele>
        <time>2014-03-14T14:23:33Z</time>
      </trkpt>
      <trkpt lat="44.35449" lon="4.20248">
        <ele>160</ele>
        <time>2014-03-14T14:23:55Z</time>
      </trkpt>
      <trkpt lat="44.35448" lon="4.20272">
        <ele>158</ele>
        <time>2014-03-14T14:24:15Z</time>
      </trkpt>
      <trkpt lat="44.35448" lon="4.20297">
        <ele>158</ele>
        <time>2014-03-14T14:24:34Z</time>
      </trkpt>
      <trkpt lat="44.35449" lon="4.20321">
        <ele>159</ele>
        <time>2014-03-14T14:24:52Z</time>
      </trkpt>
      <trkpt lat="44.35449" lon="4.20345">
        <ele>159</ele>
        <time>2014-03-14T14:25:09Z</time>
      </trkpt>
      <trkpt lat="44.35448" lon="4.20369">
        <ele>158</ele>
        <time>2014-03-14T14:25:28Z</time>
      </trkpt>
      <trkpt lat="44.35443" lon="4.20393">
        <ele>158</ele>
        <time>2014-03-14T14:25:46Z</time>
      </trkpt>
      <trkpt lat="44.35438" lon="4.20417">
        <ele>159</ele>
        <time>2014-03-14T14:26:04Z</time>
      </trkpt>
      <trkpt lat="44.35434" lon="4.20441">
        <ele>160</ele>
        <time>2014-03-14T14:26:23Z</time>
      </trkpt>
      <trkpt lat="44.35432" lon="4.20465">
        <ele>160</ele>
        <time>2014-03-14T14:26:43Z</time>
      </trkpt>
      <trkpt lat="44.35429" lon="4.2049">
        <ele>160</ele>
        <time>2014-03-14T14:27:02Z</time>
      </trkpt>
      <trkpt lat="44.35425" lon="4.20514">
        <ele>160</ele>
        <time>2014-03-14T14:27:21Z</time>
      </trkpt>
      <trkpt lat="44.35422" lon="4.20538">
        <ele>160</ele>
        <time>2014-03-14T14:27:42Z</time>
      </trkpt>
      <trkpt lat="44.35419" lon="4.20561">
        <ele>160</ele>
        <time>2014-03-14T14:28:02Z</time>
      </trkpt>
      <trkpt lat="44.35417" lon="4.20586">
        <ele>161</ele>
        <time>2014-03-14T14:28:22Z</time>
      </trkpt>
      <trkpt lat="44.35415" lon="4.20611">
        <ele>162</ele>
        <time>2014-03-14T14:28:42Z</time>
      </trkpt>
      <trkpt lat="44.35411" lon="4.20635">
        <ele>161</ele>
        <time>2014-03-14T14:29:01Z</time>
      </trkpt>
      <trkpt lat="44.35409" lon="4.20659">
        <ele>163</ele>
        <time>2014-03-14T14:29:21Z</time>
      </trkpt>
      <trkpt lat="44.35406" lon="4.20684">
        <ele>164</ele>
        <time>2014-03-14T14:29:41Z</time>
      </trkpt>
      <trkpt lat="44.35402" lon="4.20707">
        <ele>163</ele>
        <time>2014-03-14T14:29:59Z</time>
      </trkpt>
      <trkpt lat="44.35397" lon="4.2073">
        <ele>162</ele>
        <time>2014-03-14T14:30:18Z</time>
      </trkpt>
      <trkpt lat="44.35391" lon="4.20753">
        <ele>162</ele>
        <time>2014-03-14T14:30:38Z</time>
      </trkpt>
      <trkpt lat="44.35384" lon="4.20775">
        <ele>162</ele>
        <time>2014-03-14T14:30:58Z</time>
      </trkpt>
      <trkpt lat="44.35377" lon="4.20797">
        <ele>161</ele>
        <time>2014-03-14T14:31:19Z</time>
      </trkpt>
      <trkpt lat="44.3537" lon="4.2082">
        <ele>162</ele>
        <time>2014-03-14T14:31:38Z</time>
      </trkpt>
      <trkpt lat="44.35363" lon="4.20842">
        <ele>161</ele>
        <time>2014-03-14T14:31:56Z</time>
      </trkpt>
      <trkpt lat="44.35359" lon="4.20866">
        <ele>161</ele>
        <time>2014-03-14T14:32:14Z</time>
      </trkpt>
      <trkpt lat="44.35357" lon="4.2089">
        <ele>162</ele>
        <time>2014-03-14T14:32:32Z</time>
      </trkpt>
      <trkpt lat="44.35357" lon="4.20915">
        <ele>162</ele>
        <time>2014-03-14T14:32:53Z</time>
      </trkpt>
      <trkpt lat="44.35367" lon="4.20935">
        <ele>163</ele>
        <time>2014-03-14T14:33:28Z</time>
      </trkpt>
      <trkpt lat="44.35381" lon="4.20951">
        <ele>164</ele>
        <time>2014-03-14T14:33:51Z</time>
      </trkpt>
      <trkpt lat="44.35395" lon="4.20967">
        <ele>161</ele>
        <time>2014-03-14T14:34:16Z</time>
      </trkpt>
      <trkpt lat="44.35411" lon="4.20977">
        <ele>158</ele>
        <time>2014-03-14T14:34:43Z</time>
      </trkpt>
      <trkpt lat="44.3542" lon="4.20956">
        <ele>157</ele>
        <time>2014-03-14T14:39:02Z</time>
      </trkpt>
      <trkpt lat="44.35434" lon="4.20942">
        <ele>156</ele>
        <time>2014-03-14T14:42:46Z</time>
      </trkpt>
      <trkpt lat="44.35452" lon="4.2094">
        <ele>155</ele>
        <time>2014-03-14T14:43:06Z</time>
      </trkpt>
      <trkpt lat="44.35469" lon="4.20938">
        <ele>154</ele>
        <time>2014-03-14T14:43:26Z</time>
      </trkpt>
      <trkpt lat="44.35486" lon="4.20936">
        <ele>155</ele>
        <time>2014-03-14T14:43:45Z</time>
      </trkpt>
      <trkpt lat="44.35504" lon="4.20933">
        <ele>155</ele>
        <time>2014-03-14T14:44:03Z</time>
      </trkpt>
      <trkpt lat="44.35521" lon="4.20931">
        <ele>155</ele>
        <time>2014-03-14T14:44:21Z</time>
      </trkpt>
      <trkpt lat="44.35539" lon="4.20929">
        <ele>155</ele>
        <time>2014-03-14T14:44:39Z</time>
      </trkpt>
      <trkpt lat="44.35556" lon="4.20927">
        <ele>155</ele>
        <time>2014-03-14T14:44:58Z</time>
      </trkpt>
      <trkpt lat="44.35574" lon="4.20926">
        <ele>154</ele>
        <time>2014-03-14T14:45:17Z</time>
      </trkpt>
      <trkpt lat="44.35591" lon="4.20924">
        <ele>154</ele>
        <time>2014-03-14T14:45:35Z</time>
      </trkpt>
      <trkpt lat="44.35608" lon="4.20922">
        <ele>154</ele>
        <time>2014-03-14T14:45:53Z</time>
      </trkpt>
      <trkpt lat="44.35626" lon="4.20919">
        <ele>154</ele>
        <time>2014-03-14T14:46:12Z</time>
      </trkpt>
      <trkpt lat="44.35643" lon="4.20914">
        <ele>154</ele>
        <time>2014-03-14T14:46:30Z</time>
      </trkpt>
      <trkpt lat="44.3566" lon="4.2091">
        <ele>153</ele>
        <time>2014-03-14T14:46:48Z</time>
      </trkpt>
      <trkpt lat="44.35677" lon="4.20905">
        <ele>152</ele>
        <time>2014-03-14T14:47:05Z</time>
      </trkpt>
      <trkpt lat="44.35694" lon="4.20898">
        <ele>152</ele>
        <time>2014-03-14T14:47:23Z</time>
      </trkpt>
      <trkpt lat="44.35709" lon="4.20912">
        <ele>156</ele>
        <time>2014-03-14T14:50:04Z</time>
      </trkpt>
      <trkpt lat="44.35712" lon="4.20936">
        <ele>154</ele>
        <time>2014-03-14T14:50:29Z</time>
      </trkpt>
      <trkpt lat="44.35715" lon="4.2096">
        <ele>154</ele>
        <time>2014-03-14T14:50:50Z</time>
      </trkpt>
      <trkpt lat="44.35717" lon="4.20984">
        <ele>154</ele>
        <time>2014-03-14T14:51:12Z</time>
      </trkpt>
      <trkpt lat="44.35724" lon="4.21006">
        <ele>154</ele>
        <time>2014-03-14T14:51:33Z</time>
      </trkpt>
      <trkpt lat="44.35728" lon="4.2103">
        <ele>155</ele>
        <time>2014-03-14T14:51:53Z</time>
      </trkpt>
      <trkpt lat="44.35732" lon="4.21055">
        <ele>156</ele>
        <time>2014-03-14T14:52:12Z</time>
      </trkpt>
      <trkpt lat="44.35737" lon="4.21078">
        <ele>157</ele>
        <time>2014-03-14T14:52:30Z</time>
      </trkpt>
      <trkpt lat="44.35741" lon="4.21102">
        <ele>157</ele>
        <time>2014-03-14T14:52:49Z</time>
      </trkpt>
      <trkpt lat="44.35745" lon="4.21126">
        <ele>158</ele>
        <time>2014-03-14T14:53:10Z</time>
      </trkpt>
      <trkpt lat="44.35748" lon="4.2115">
        <ele>158</ele>
        <time>2014-03-14T14:53:32Z</time>
      </trkpt>
      <trkpt lat="44.35752" lon="4.21174">
        <ele>159</ele>
        <time>2014-03-14T14:53:51Z</time>
      </trkpt>
      <trkpt lat="44.35756" lon="4.21198">
        <ele>159</ele>
        <time>2014-03-14T14:54:09Z</time>
      </trkpt>
      <trkpt lat="44.35754" lon="4.21222">
        <ele>157</ele>
        <time>2014-03-14T14:54:29Z</time>
      </trkpt>
      <trkpt lat="44.35762" lon="4.21244">
        <ele>157</ele>
        <time>2014-03-14T14:54:50Z</time>
      </trkpt>
      <trkpt lat="44.35777" lon="4.21256">
        <ele>157</ele>
        <time>2014-03-14T14:55:09Z</time>
      </trkpt>
      <trkpt lat="44.35792" lon="4.2127">
        <ele>156</ele>
        <time>2014-03-14T14:55:28Z</time>
      </trkpt>
      <trkpt lat="44.35808" lon="4.21282">
        <ele>156</ele>
        <time>2014-03-14T14:55:46Z</time>
      </trkpt>
      <trkpt lat="44.35823" lon="4.21293">
        <ele>157</ele>
        <time>2014-03-14T14:56:04Z</time>
      </trkpt>
      <trkpt lat="44.35839" lon="4.21305">
        <ele>159</ele>
        <time>2014-03-14T14:56:21Z</time>
      </trkpt>
      <trkpt lat="44.35855" lon="4.21316">
        <ele>159</ele>
        <time>2014-03-14T14:56:37Z</time>
      </trkpt>
      <trkpt lat="44.3587" lon="4.21328">
        <ele>159</ele>
        <time>2014-03-14T14:56:52Z</time>
      </trkpt>
      <trkpt lat="44.35885" lon="4.2134">
        <ele>160</ele>
        <time>2014-03-14T14:57:08Z</time>
      </trkpt>
      <trkpt lat="44.359" lon="4.21351">
        <ele>158</ele>
        <time>2014-03-14T14:57:26Z</time>
      </trkpt>
      <trkpt lat="44.35917" lon="4.21361">
        <ele>158</ele>
        <time>2014-03-14T14:57:44Z</time>
      </trkpt>
      <trkpt lat="44.35933" lon="4.21371">
        <ele>158</ele>
        <time>2014-03-14T14:58:03Z</time>
      </trkpt>
      <trkpt lat="44.35948" lon="4.21382">
        <ele>158</ele>
        <time>2014-03-14T14:58:21Z</time>
      </trkpt>
      <trkpt lat="44.35964" lon="4.21392">
        <ele>157</ele>
        <time>2014-03-14T14:58:40Z</time>
      </trkpt>
      <trkpt lat="44.35979" lon="4.21404">
        <ele>158</ele>
        <time>2014-03-14T14:58:58Z</time>
      </trkpt>
      <trkpt lat="44.35995" lon="4.21415">
        <ele>160</ele>
        <time>2014-03-14T14:59:16Z</time>
      </trkpt>
      <trkpt lat="44.36012" lon="4.21422">
        <ele>159</ele>
        <time>2014-03-14T14:59:33Z</time>
      </trkpt>
      <trkpt lat="44.36028" lon="4.21431">
        <ele>157</ele>
        <time>2014-03-14T14:59:50Z</time>
      </trkpt>
      <trkpt lat="44.36044" lon="4.21443">
        <ele>156</ele>
        <time>2014-03-14T15:00:07Z</time>
      </trkpt>
      <trkpt lat="44.36058" lon="4.21457">
        <ele>155</ele>
        <time>2014-03-14T15:00:25Z</time>
      </trkpt>
      <trkpt lat="44.36072" lon="4.21473">
        <ele>156</ele>
        <time>2014-03-14T15:00:45Z</time>
      </trkpt>
      <trkpt lat="44.36086" lon="4.21486">
        <ele>155</ele>
        <time>2014-03-14T15:01:02Z</time>
      </trkpt>
      <trkpt lat="44.36101" lon="4.21498">
        <ele>154</ele>
        <time>2014-03-14T15:01:20Z</time>
      </trkpt>
      <trkpt lat="44.36116" lon="4.21511">
        <ele>154</ele>
        <time>2014-03-14T15:01:39Z</time>
      </trkpt>
      <trkpt lat="44.36129" lon="4.21527">
        <ele>153</ele>
        <time>2014-03-14T15:04:29Z</time>
      </trkpt>
      <trkpt lat="44.36144" lon="4.2154">
        <ele>152</ele>
        <time>2014-03-14T15:04:49Z</time>
      </trkpt>
      <trkpt lat="44.36159" lon="4.21552">
        <ele>151</ele>
        <time>2014-03-14T15:05:09Z</time>
      </trkpt>
      <trkpt lat="44.36174" lon="4.21566">
        <ele>150</ele>
        <time>2014-03-14T15:05:29Z</time>
      </trkpt>
      <trkpt lat="44.3617" lon="4.2159">
        <ele>152</ele>
        <time>2014-03-14T15:06:17Z</time>
      </trkpt>
      <trkpt lat="44.36155" lon="4.21602">
        <ele>151</ele>
        <time>2014-03-14T15:06:41Z</time>
      </trkpt>
      <trkpt lat="44.3614" lon="4.21615">
        <ele>151</ele>
        <time>2014-03-14T15:07:02Z</time>
      </trkpt>
      <trkpt lat="44.36127" lon="4.21631">
        <ele>153</ele>
        <time>2014-03-14T15:07:24Z</time>
      </trkpt>
      <trkpt lat="44.36118" lon="4.21652">
        <ele>154</ele>
        <time>2014-03-14T15:07:45Z</time>
      </trkpt>
      <trkpt lat="44.36105" lon="4.2167">
        <ele>153</ele>
        <time>2014-03-14T15:08:11Z</time>
      </trkpt>
      <trkpt lat="44.36096" lon="4.21691">
        <ele>150</ele>
        <time>2014-03-14T15:08:32Z</time>
      </trkpt>
      <trkpt lat="44.36086" lon="4.21711">
        <ele>148</ele>
        <time>2014-03-14T15:08:52Z</time>
      </trkpt>
      <trkpt lat="44.36076" lon="4.21732">
        <ele>148</ele>
        <time>2014-03-14T15:09:11Z</time>
      </trkpt>
      <trkpt lat="44.36062" lon="4.21747">
        <ele>147</ele>
        <time>2014-03-14T15:09:31Z</time>
      </trkpt>
      <trkpt lat="44.36044" lon="4.21745">
        <ele>146</ele>
        <time>2014-03-14T15:09:48Z</time>
      </trkpt>
      <trkpt lat="44.36027" lon="4.21741">
        <ele>146</ele>
        <time>2014-03-14T15:10:07Z</time>
      </trkpt>
      <trkpt lat="44.36012" lon="4.21752">
        <ele>145</ele>
        <time>2014-03-14T15:10:26Z</time>
      </trkpt>
      <trkpt lat="44.36" lon="4.21771">
        <ele>144</ele>
        <time>2014-03-14T15:10:46Z</time>
      </trkpt>
      <trkpt lat="44.35987" lon="4.21788">
        <ele>144</ele>
        <time>2014-03-14T15:11:04Z</time>
      </trkpt>
      <trkpt lat="44.35974" lon="4.21806">
        <ele>143</ele>
        <time>2014-03-14T15:11:26Z</time>
      </trkpt>
      <trkpt lat="44.35961" lon="4.21823">
        <ele>142</ele>
        <time>2014-03-14T15:11:46Z</time>
      </trkpt>
      <trkpt lat="44.35948" lon="4.2184">
        <ele>142</ele>
        <time>2014-03-14T15:12:05Z</time>
      </trkpt>
      <trkpt lat="44.35936" lon="4.21856">
        <ele>142</ele>
        <time>2014-03-14T15:12:23Z</time>
      </trkpt>
      <trkpt lat="44.35924" lon="4.21873">
        <ele>141</ele>
        <time>2014-03-14T15:12:40Z</time>
      </trkpt>
      <trkpt lat="44.35911" lon="4.21891">
        <ele>141</ele>
        <time>2014-03-14T15:12:58Z</time>
      </trkpt>
      <trkpt lat="44.35899" lon="4.21909">
        <ele>141</ele>
        <time>2014-03-14T15:13:15Z</time>
      </trkpt>
      <trkpt lat="44.35887" lon="4.21927">
        <ele>141</ele>
        <time>2014-03-14T15:13:33Z</time>
      </trkpt>
      <trkpt lat="44.35874" lon="4.21944">
        <ele>140</ele>
        <time>2014-03-14T15:13:51Z</time>
      </trkpt>
      <trkpt lat="44.35862" lon="4.2196">
        <ele>140</ele>
        <time>2014-03-14T15:14:08Z</time>
      </trkpt>
      <trkpt lat="44.35848" lon="4.21975">
        <ele>140</ele>
        <time>2014-03-14T15:14:26Z</time>
      </trkpt>
      <trkpt lat="44.35833" lon="4.2199">
        <ele>139</ele>
        <time>2014-03-14T15:14:44Z</time>
      </trkpt>
      <trkpt lat="44.3582" lon="4.22006">
        <ele>139</ele>
        <time>2014-03-14T15:15:03Z</time>
      </trkpt>
      <trkpt lat="44.35806" lon="4.22021">
        <ele>138</ele>
        <time>2014-03-14T15:15:20Z</time>
      </trkpt>
      <trkpt lat="44.35793" lon="4.22037">
        <ele>138</ele>
        <time>2014-03-14T15:15:37Z</time>
      </trkpt>
      <trkpt lat="44.3578" lon="4.22054">
        <ele>137</ele>
        <time>2014-03-14T15:15:54Z</time>
      </trkpt>
      <trkpt lat="44.35769" lon="4.22072">
        <ele>137</ele>
        <time>2014-03-14T15:16:12Z</time>
      </trkpt>
      <trkpt lat="44.35759" lon="4.22092">
        <ele>135</ele>
        <time>2014-03-14T15:16:29Z</time>
      </trkpt>
      <trkpt lat="44.35749" lon="4.22113">
        <ele>134</ele>
        <time>2014-03-14T15:16:49Z</time>
      </trkpt>
      <trkpt lat="44.35743" lon="4.22136">
        <ele>131</ele>
        <time>2014-03-14T15:17:26Z</time>
      </trkpt>
      <trkpt lat="44.35742" lon="4.2216">
        <ele>130</ele>
        <time>2014-03-14T15:17:47Z</time>
      </trkpt>
      <trkpt lat="44.35743" lon="4.22184">
        <ele>129</ele>
        <time>2014-03-14T15:18:06Z</time>
      </trkpt>
      <trkpt lat="44.35744" lon="4.22209">
        <ele>131</ele>
        <time>2014-03-14T15:18:26Z</time>
      </trkpt>
      <trkpt lat="44.35742" lon="4.22233">
        <ele>132</ele>
        <time>2014-03-14T15:18:44Z</time>
      </trkpt>
      <trkpt lat="44.35732" lon="4.22254">
        <ele>132</ele>
        <time>2014-03-14T15:19:02Z</time>
      </trkpt>
      <trkpt lat="44.35723" lon="4.22274">
        <ele>133</ele>
        <time>2014-03-14T15:19:19Z</time>
      </trkpt>
      <trkpt lat="44.35714" lon="4.22296">
        <ele>134</ele>
        <time>2014-03-14T15:19:35Z</time>
      </trkpt>
      <trkpt lat="44.35705" lon="4.22317">
        <ele>136</ele>
        <time>2014-03-14T15:19:51Z</time>
      </trkpt>
      <trkpt lat="44.35696" lon="4.22338">
        <ele>137</ele>
        <time>2014-03-14T15:20:08Z</time>
      </trkpt>
      <trkpt lat="44.35688" lon="4.22359">
        <ele>138</ele>
        <time>2014-03-14T15:20:28Z</time>
      </trkpt>
      <trkpt lat="44.35677" lon="4.22378">
        <ele>138</ele>
        <time>2014-03-14T15:20:48Z</time>
      </trkpt>
      <trkpt lat="44.35663" lon="4.22394">
        <ele>139</ele>
        <time>2014-03-14T15:21:07Z</time>
      </trkpt>
      <trkpt lat="44.35648" lon="4.22407">
        <ele>139</ele>
        <time>2014-03-14T15:21:27Z</time>
      </trkpt>
      <trkpt lat="44.35634" lon="4.22421">
        <ele>139</ele>
        <time>2014-03-14T15:21:46Z</time>
      </trkpt>
      <trkpt lat="44.3562" lon="4.22435">
        <ele>142</ele>
        <time>2014-03-14T15:22:01Z</time>
      </trkpt>
      <trkpt lat="44.35606" lon="4.22449">
        <ele>143</ele>
        <time>2014-03-14T15:22:18Z</time>
      </trkpt>
      <trkpt lat="44.35591" lon="4.22461">
        <ele>143</ele>
        <time>2014-03-14T15:22:37Z</time>
      </trkpt>
      <trkpt lat="44.35577" lon="4.22477">
        <ele>143</ele>
        <time>2014-03-14T15:22:56Z</time>
      </trkpt>
      <trkpt lat="44.35568" lon="4.22497">
        <ele>144</ele>
        <time>2014-03-14T15:23:14Z</time>
      </trkpt>
      <trkpt lat="44.35558" lon="4.22517">
        <ele>144</ele>
        <time>2014-03-14T15:23:33Z</time>
      </trkpt>
      <trkpt lat="44.35544" lon="4.22532">
        <ele>145</ele>
        <time>2014-03-14T15:23:53Z</time>
      </trkpt>
      <trkpt lat="44.35527" lon="4.22542">
        <ele>147</ele>
        <time>2014-03-14T15:24:12Z</time>
      </trkpt>
      <trkpt lat="44.35513" lon="4.22556">
        <ele>149</ele>
        <time>2014-03-14T15:24:32Z</time>
      </trkpt>
      <trkpt lat="44.35501" lon="4.22575">
        <ele>151</ele>
        <time>2014-03-14T15:24:52Z</time>
      </trkpt>
      <trkpt lat="44.35489" lon="4.22591">
        <ele>151</ele>
        <time>2014-03-14T15:25:12Z</time>
      </trkpt>
      <trkpt lat="44.35478" lon="4.22611">
        <ele>151</ele>
        <time>2014-03-14T15:25:39Z</time>
      </trkpt>
      <trkpt lat="44.35467" lon="4.22629">
        <ele>152</ele>
        <time>2014-03-14T15:25:58Z</time>
      </trkpt>
      <trkpt lat="44.35454" lon="4.22645">
        <ele>152</ele>
        <time>2014-03-14T15:26:16Z</time>
      </trkpt>
      <trkpt lat="44.35436" lon="4.22646">
        <ele>152</ele>
        <time>2014-03-14T15:26:48Z</time>
      </trkpt>
      <trkpt lat="44.35421" lon="4.22636">
        <ele>146</ele>
        <time>2014-03-14T15:27:10Z</time>
      </trkpt>
      <trkpt lat="44.35406" lon="4.22623">
        <ele>143</ele>
        <time>2014-03-14T15:27:29Z</time>
      </trkpt>
      <trkpt lat="44.35392" lon="4.22609">
        <ele>146</ele>
        <time>2014-03-14T15:27:45Z</time>
      </trkpt>
      <trkpt lat="44.35376" lon="4.22598">
        <ele>145</ele>
        <time>2014-03-14T15:28:03Z</time>
      </trkpt>
      <trkpt lat="44.35361" lon="4.22587">
        <ele>145</ele>
        <time>2014-03-14T15:28:21Z</time>
      </trkpt>
      <trkpt lat="44.35345" lon="4.22576">
        <ele>144</ele>
        <time>2014-03-14T15:28:39Z</time>
      </trkpt>
      <trkpt lat="44.3533" lon="4.22565">
        <ele>145</ele>
        <time>2014-03-14T15:28:57Z</time>
      </trkpt>
      <trkpt lat="44.35314" lon="4.22555">
        <ele>144</ele>
        <time>2014-03-14T15:29:14Z</time>
      </trkpt>
      <trkpt lat="44.35299" lon="4.22544">
        <ele>144</ele>
        <time>2014-03-14T15:29:32Z</time>
      </trkpt>
      <trkpt lat="44.35283" lon="4.22534">
        <ele>143</ele>
        <time>2014-03-14T15:29:51Z</time>
      </trkpt>
      <trkpt lat="44.35267" lon="4.22524">
        <ele>145</ele>
        <time>2014-03-14T15:30:11Z</time>
      </trkpt>
      <trkpt lat="44.35252" lon="4.22514">
        <ele>147</ele>
        <time>2014-03-14T15:30:28Z</time>
      </trkpt>
      <trkpt lat="44.3524" lon="4.22496">
        <ele>146</ele>
        <time>2014-03-14T15:30:46Z</time>
      </trkpt>
      <trkpt lat="44.35231" lon="4.22474">
        <ele>149</ele>
        <time>2014-03-14T15:31:01Z</time>
      </trkpt>
      <trkpt lat="44.35233" lon="4.22449">
        <ele>149</ele>
        <time>2014-03-14T15:31:22Z</time>
      </trkpt>
      <trkpt lat="44.35232" lon="4.22425">
        <ele>149</ele>
        <time>2014-03-14T15:31:39Z</time>
      </trkpt>
      <trkpt lat="44.35232" lon="4.224">
        <ele>146</ele>
        <time>2014-03-14T15:31:57Z</time>
      </trkpt>
      <trkpt lat="44.35233" lon="4.22379">
        <ele>146</ele>
        <time>2014-03-14T15:32:17Z</time>
      </trkpt>
    </trkseg>
  </trk>
</gpx>